createdAt,value
2019-01-02T00:02:11.851Z,100303.87
2019-01-02T00:04:38.607Z,100307.74
2019-01-02T00:07:05.912Z,100303.03
2019-01-02T00:09:32.649Z,100321.08
2019-01-02T00:11:59.765Z,100301.23
2019-01-02T00:14:26.658Z,100301.23
2019-01-02T00:16:53.805Z,100308.02
2019-01-02T00:19:21.204Z,100309.08
2019-01-02T00:21:48.582Z,100316.97
2019-01-02T00:24:15.667Z,100316.97
2019-01-02T00:26:42.657Z,100319.12
2019-01-02T00:29:09.544Z,100316.81
2019-01-02T00:31:36.373Z,100316.81
2019-01-02T00:34:03.168Z,100300.42
2019-01-02T00:36:30.830Z,100306.50
2019-01-02T00:39:00.689Z,100306.50
2019-01-02T00:41:27.416Z,100308.84
2019-01-02T00:43:54.095Z,100320.81
2019-01-02T00:46:20.952Z,100320.81
2019-01-02T00:48:50.346Z,100317.58
2019-01-02T00:51:17.064Z,100317.50
2019-01-02T00:53:43.807Z,100317.50
2019-01-02T00:56:10.563Z,100314.56
2019-01-02T00:58:37.557Z,100312.92
2019-01-02T01:01:04.433Z,100315.41
2019-01-02T01:03:31.195Z,100310.12
2019-01-02T01:05:58.359Z,100317.63
2019-01-02T01:08:25.237Z,100322.28
2019-01-02T01:10:52.850Z,100316.04
2019-01-02T01:13:19.643Z,100316.04
2019-01-02T01:15:46.904Z,100312.22
2019-01-02T01:18:13.820Z,100316.33
2019-01-02T01:20:41.075Z,100318.76
2019-01-02T01:23:07.832Z,100317.03
2019-01-02T01:25:35.041Z,100315.83
2019-01-02T01:28:01.819Z,100315.03
2019-01-02T01:30:28.547Z,100318.80
2019-01-02T01:32:55.514Z,100315.84
2019-01-02T01:35:22.256Z,100323.94
2019-01-02T01:37:53.863Z,100336.77
2019-01-02T01:40:21.013Z,100345.97
2019-01-02T01:42:47.761Z,100341.27
2019-01-02T01:45:14.885Z,100341.27
2019-01-02T01:47:41.719Z,100359.23
2019-01-02T01:50:08.788Z,100373.59
2019-01-02T01:52:35.491Z,100373.59
2019-01-02T01:55:02.708Z,100373.54
2019-01-02T01:57:29.832Z,100363.37
2019-01-02T01:59:56.815Z,100393.95
2019-01-02T02:02:24.110Z,100374.20
2019-01-02T02:04:50.851Z,100386.17
2019-01-02T02:07:17.876Z,100386.17
2019-01-02T02:09:44.606Z,100388.45
2019-01-02T02:12:11.340Z,100406.64
2019-01-02T02:14:38.473Z,100407.59
2019-01-02T02:17:05.184Z,100402.84
2019-01-02T02:19:34.905Z,100402.84
2019-01-02T02:22:04.163Z,100406.70
2019-01-02T02:24:31.236Z,100394.36
2019-01-02T02:26:58.323Z,100394.36
2019-01-02T02:29:25.019Z,100388.34
2019-01-02T02:31:52.115Z,100388.83
2019-01-02T02:34:18.811Z,100380.81
2019-01-02T02:36:46.032Z,100380.81
2019-01-02T02:39:13.082Z,100379.73
2019-01-02T02:41:40.293Z,100379.73
2019-01-02T02:44:08.256Z,100378.23
2019-01-02T02:46:35.462Z,100378.23
2019-01-02T02:49:03.930Z,100381.91
2019-01-02T02:51:31.122Z,100368.41
2019-01-02T02:53:57.952Z,100388.72
2019-01-02T02:56:25.253Z,100388.72
2019-01-02T02:58:52.826Z,100392.97
2019-01-02T03:01:20.412Z,100380.36
2019-01-02T03:03:47.934Z,100380.36
2019-01-02T03:06:15.151Z,100372.28
2019-01-02T03:08:42.323Z,100361.52
2019-01-02T03:11:09.435Z,100361.52
2019-01-02T03:13:36.618Z,100379.85
2019-01-02T03:16:03.746Z,100371.31
2019-01-02T03:18:35.080Z,100373.52
2019-01-02T03:21:02.100Z,100376.38
2019-01-02T03:23:29.808Z,100374.11
2019-01-02T03:26:03.187Z,100373.86
2019-01-02T03:28:30.328Z,100369.86
2019-01-02T03:30:57.614Z,100369.86
2019-01-02T03:33:32.487Z,100368.87
2019-01-02T03:36:01.221Z,100368.06
2019-01-02T03:38:28.062Z,100368.06
2019-01-02T03:40:54.917Z,100377.09
2019-01-02T03:43:21.857Z,100380.16
2019-01-02T03:45:50.944Z,100379.09
2019-01-02T03:48:27.933Z,100379.09
2019-01-02T03:50:54.738Z,100389.17
2019-01-02T03:53:21.506Z,100384.91
2019-01-02T03:55:48.229Z,100394.64
2019-01-02T03:58:15.757Z,100396.37
2019-01-02T04:00:42.628Z,100394.92
2019-01-02T04:03:09.441Z,100402.13
2019-01-02T04:05:36.182Z,100391.06
2019-01-02T04:08:05.879Z,100397.18
2019-01-02T04:10:32.579Z,100371.06
2019-01-02T04:12:59.277Z,100376.48
2019-01-02T04:15:26.085Z,100382.55
2019-01-02T04:17:52.795Z,100380.44
2019-01-02T04:20:19.583Z,100380.44
2019-01-02T04:22:46.317Z,100395.45
2019-01-02T04:25:13.014Z,100396.30
2019-01-02T04:27:39.831Z,100386.52
2019-01-02T04:30:09.169Z,100385.09
2019-01-02T04:32:35.992Z,100394.20
2019-01-02T04:35:02.804Z,100400.06
2019-01-02T04:37:29.593Z,100391.40
2019-01-02T04:39:56.315Z,100391.40
2019-01-02T04:42:22.989Z,100386.10
2019-01-02T04:44:49.796Z,100387.97
2019-01-02T04:47:16.524Z,100397.25
2019-01-02T04:49:43.225Z,100397.25
2019-01-02T04:52:12.182Z,100402.78
2019-01-02T04:54:38.892Z,100402.78
2019-01-02T04:57:05.617Z,100415.42
2019-01-02T04:59:32.330Z,100415.42
2019-01-02T05:01:59.038Z,100425.62
2019-01-02T05:04:26.008Z,100434.59
2019-01-02T05:06:52.700Z,100426.45
2019-01-02T05:09:19.421Z,100424.92
2019-01-02T05:11:46.162Z,100436.93
2019-01-02T05:14:12.862Z,100436.93
2019-01-02T05:16:39.592Z,100444.62
2019-01-02T05:19:06.340Z,100437.67
2019-01-02T05:21:33.414Z,100437.67
2019-01-02T05:24:00.161Z,100437.61
2019-01-02T05:26:26.853Z,100445.05
2019-01-02T05:28:53.712Z,100445.05
2019-01-02T05:31:20.514Z,100441.05
2019-01-02T05:33:47.253Z,100441.05
2019-01-02T05:36:14.392Z,100446.90
2019-01-02T05:38:41.140Z,100431.83
2019-01-02T05:41:07.933Z,100436.83
2019-01-02T05:43:34.767Z,100436.83
2019-01-02T05:46:04.276Z,100435.39
2019-01-02T05:48:31.281Z,100442.36
2019-01-02T05:50:58.015Z,100440.63
2019-01-02T05:53:26.135Z,100443.99
2019-01-02T05:55:52.979Z,100449.88
2019-01-02T05:58:19.752Z,100449.88
2019-01-02T06:00:46.907Z,100436.77
2019-01-02T06:03:14.312Z,100445.36
2019-01-02T06:05:41.157Z,100445.36
2019-01-02T06:08:07.903Z,100442.69
2019-01-02T06:10:34.745Z,100432.38
2019-01-02T06:13:01.576Z,100432.38
2019-01-02T06:15:31.119Z,100433.95
2019-01-02T06:17:57.912Z,100433.95
2019-01-02T06:20:24.998Z,100452.34
2019-01-02T06:22:51.802Z,100454.63
2019-01-02T06:25:18.465Z,100454.63
2019-01-02T06:27:45.204Z,100459.11
2019-01-02T06:30:12.220Z,100449.39
2019-01-02T06:32:39.059Z,100346.20
2019-01-02T06:35:06.726Z,100458.32
2019-01-02T06:37:33.540Z,100458.32
2019-01-02T06:40:00.619Z,100460.67
2019-01-02T06:42:27.329Z,100455.99
2019-01-02T06:44:54.051Z,100455.99
2019-01-02T06:47:20.763Z,100461.23
2019-01-02T06:49:47.498Z,100468.03
2019-01-02T06:52:16.223Z,100468.03
2019-01-02T06:54:43.045Z,100451.47
2019-01-02T06:57:14.209Z,100459.28
2019-01-02T06:59:40.961Z,100453.72
2019-01-02T07:04:48.266Z,100478.45
2019-01-02T07:07:15.417Z,100486.62
2019-01-02T07:09:42.847Z,100474.45
2019-01-02T07:12:09.700Z,100483.75
2019-01-02T07:14:36.440Z,100483.75
2019-01-02T07:17:03.358Z,100493.04
2019-01-02T07:19:30.078Z,100502.95
2019-01-02T07:21:56.786Z,100502.95
2019-01-02T07:24:23.788Z,100510.91
2019-01-02T07:26:51.810Z,100502.63
2019-01-02T07:29:18.695Z,100503.80
2019-01-02T07:31:45.426Z,100503.80
2019-01-02T07:34:54.349Z,100514.08
2019-01-02T07:38:11.478Z,100514.08
2019-01-02T07:41:15.606Z,100498.44
2019-01-02T07:44:08.879Z,100507.80
2019-01-02T07:47:14.332Z,100504.07
2019-01-02T07:50:05.714Z,100504.07
2019-01-02T07:53:03.075Z,100512.35
2019-01-02T07:55:56.055Z,100513.04
2019-01-02T07:59:06.785Z,100512.13
2019-01-02T08:01:58.683Z,100512.13
2019-01-02T08:04:47.344Z,100516.80
2019-01-02T08:07:41.392Z,100520.59
2019-01-02T08:10:43.093Z,100523.38
2019-01-02T08:14:00.736Z,100523.83
2019-01-02T08:17:07.756Z,100530.17
2019-01-02T08:20:06.811Z,100533.69
2019-01-02T08:23:07.947Z,100532.59
2019-01-02T08:25:57.899Z,100528.05
2019-01-02T08:29:18.639Z,100540.48
2019-01-02T08:32:17.850Z,100536.91
2019-01-02T08:35:31.126Z,100532.91
2019-01-02T08:38:20.233Z,100544.63
2019-01-02T08:41:15.954Z,100544.63
2019-01-02T08:44:33.870Z,100545.53
2019-01-02T08:47:57.989Z,100545.53
2019-01-02T08:51:19.206Z,100549.75
2019-01-02T08:54:23.948Z,100541.77
2019-01-02T08:57:51.191Z,100541.77
2019-01-02T09:00:51.811Z,100556.61
2019-01-02T09:03:57.352Z,100556.61
2019-01-02T09:06:43.573Z,100563.23
2019-01-02T09:09:48.056Z,100571.03
2019-01-02T09:12:43.383Z,100570.81
2019-01-02T09:15:32.327Z,100572.94
2019-01-02T09:18:36.659Z,100572.14
2019-01-02T09:21:48.784Z,100575.38
2019-01-02T09:25:05.898Z,100575.38
2019-01-02T09:27:49.901Z,100578.00
2019-01-02T09:31:04.880Z,100580.17
2019-01-02T09:34:11.563Z,100587.78
2019-01-02T09:37:14.250Z,100589.55
2019-01-02T09:40:15.381Z,100585.68
2019-01-02T09:43:32.749Z,100580.80
2019-01-02T09:46:30.583Z,100580.80
2019-01-02T09:49:25.011Z,100582.84
2019-01-02T09:52:26.094Z,100582.84
2019-01-02T09:55:18.571Z,100578.47
2019-01-02T09:58:18.407Z,100583.72
2019-01-02T10:01:29.082Z,100580.73
2019-01-02T10:04:32.425Z,100573.19
2019-01-02T10:07:32.703Z,100573.58
2019-01-02T10:10:25.023Z,100580.69
2019-01-02T10:13:28.784Z,100586.13
2019-01-02T10:16:47.892Z,100586.13
2019-01-02T10:19:57.594Z,100569.16
2019-01-02T10:22:49.275Z,100569.16
2019-01-02T10:26:12.289Z,100572.52
2019-01-02T10:29:18.656Z,100582.23
2019-01-02T10:32:26.754Z,100582.23
2019-01-02T10:35:23.800Z,100584.52
2019-01-02T10:38:34.279Z,100586.47
2019-01-02T10:41:27.177Z,100586.47
2019-01-02T10:44:31.874Z,100591.34
2019-01-02T10:47:16.708Z,100595.95
2019-01-02T10:50:23.964Z,100595.95
2019-01-02T10:53:18.310Z,100602.15
2019-01-02T10:56:20.490Z,100597.66
2019-01-02T10:59:34.510Z,100597.66
2019-01-02T11:02:42.331Z,100606.73
2019-01-02T11:06:06.807Z,100603.56
2019-01-02T11:08:52.555Z,100603.56
2019-01-02T11:12:05.927Z,100599.02
2019-01-02T11:15:03.324Z,100598.36
2019-01-02T11:18:14.551Z,100604.45
2019-01-02T11:21:13.864Z,100600.72
2019-01-02T11:24:12.078Z,100590.38
2019-01-02T11:27:27.472Z,100592.89
2019-01-02T11:30:33.765Z,100592.89
2019-01-02T11:33:37.855Z,100587.41
2019-01-02T11:36:14.296Z,100587.41
2019-01-02T11:39:31.575Z,100574.62
2019-01-02T11:42:43.430Z,100559.55
2019-01-02T11:45:10.878Z,100560.33
2019-01-02T11:47:37.614Z,100569.58
2019-01-02T11:50:11.325Z,100569.58
2019-01-02T11:52:38.289Z,100555.84
2019-01-02T11:55:05.700Z,100555.84
2019-01-02T11:57:32.488Z,100557.73
2019-01-02T11:59:59.240Z,100543.59
2019-01-02T12:02:26.156Z,100576.66
2019-01-02T12:04:52.841Z,100534.91
2019-01-02T12:07:19.703Z,100534.91
2019-01-02T12:09:46.988Z,100527.04
2019-01-02T12:12:13.743Z,100528.88
2019-01-02T12:14:40.957Z,100526.45
2019-01-02T12:17:07.674Z,100538.56
2019-01-02T12:19:34.547Z,100542.73
2019-01-02T12:22:01.408Z,100542.73
2019-01-02T12:24:28.893Z,100539.05
2019-01-02T12:26:57.999Z,100539.05
2019-01-02T12:29:24.750Z,100547.20
2019-01-02T12:31:51.480Z,100547.20
2019-01-02T12:34:18.185Z,100541.22
2019-01-02T12:36:44.899Z,100537.86
2019-01-02T12:39:13.867Z,100538.80
2019-01-02T12:41:40.601Z,100546.99
2019-01-02T12:44:07.684Z,100544.91
2019-01-02T12:46:34.861Z,100544.50
2019-01-02T12:49:01.737Z,100544.50
2019-01-02T12:51:28.470Z,100529.83
2019-01-02T12:53:55.869Z,100541.09
2019-01-02T12:56:22.597Z,100539.18
2019-01-02T12:58:49.638Z,100541.55
2019-01-02T13:01:24.061Z,100552.73
2019-01-02T13:04:09.697Z,100544.38
2019-01-02T13:06:54.697Z,100544.38
2019-01-02T13:09:37.176Z,100538.80
2019-01-02T13:12:57.047Z,100548.40
2019-01-02T13:16:02.693Z,100548.40
2019-01-02T13:19:00.914Z,100551.34
2019-01-02T13:22:12.928Z,100544.94
2019-01-02T13:25:04.505Z,100562.78
2019-01-02T13:28:31.955Z,100562.78
2019-01-02T13:31:08.749Z,100569.74
2019-01-02T13:33:58.728Z,100572.84
2019-01-02T13:36:57.774Z,100585.90
2019-01-02T13:39:35.410Z,100587.03
2019-01-02T13:42:28.732Z,100591.72
2019-01-02T13:45:18.543Z,100586.16
2019-01-02T13:48:38.337Z,100586.16
2019-01-02T13:51:09.640Z,100585.62
2019-01-02T13:53:36.347Z,100598.58
2019-01-02T13:56:04.675Z,100594.03
2019-01-02T13:58:31.784Z,100604.15
2019-01-02T14:01:00.530Z,100605.94
2019-01-02T14:03:27.394Z,100605.94
2019-01-02T14:05:54.153Z,100609.27
2019-01-02T14:08:20.922Z,100598.44
2019-01-02T14:10:47.748Z,100604.62
2019-01-02T14:13:14.503Z,100599.89
2019-01-02T14:15:44.943Z,100597.14
2019-01-02T14:18:11.632Z,100597.14
2019-01-02T14:20:38.406Z,100606.52
2019-01-02T14:23:05.240Z,100610.37
2019-01-02T14:25:31.979Z,100603.33
2019-01-02T14:27:58.736Z,100612.80
2019-01-02T14:30:25.534Z,100613.19
2019-01-02T14:32:52.302Z,100613.19
2019-01-02T14:35:22.409Z,100614.93
2019-01-02T14:37:47.975Z,100636.48
2019-01-02T14:40:15.308Z,100636.97
2019-01-02T14:42:42.089Z,100636.97
2019-01-02T14:45:08.986Z,100646.92
2019-01-02T14:47:35.973Z,100654.30
2019-01-02T14:50:03.621Z,100654.23
2019-01-02T14:52:30.375Z,100653.31
2019-01-02T14:54:57.250Z,100651.75
2019-01-02T14:57:24.263Z,100651.75
2019-01-02T14:59:50.989Z,100651.65
2019-01-02T15:02:17.816Z,100651.65
2019-01-02T15:04:46.518Z,100658.98
2019-01-02T15:07:13.709Z,100652.50
2019-01-02T15:09:40.722Z,100643.84
2019-01-02T15:12:08.102Z,100640.20
2019-01-02T15:14:34.833Z,100640.53
2019-01-02T15:17:01.787Z,100653.94
2019-01-02T15:19:28.622Z,100650.89
2019-01-02T15:21:55.476Z,100650.89
2019-01-02T15:24:23.610Z,100652.31
2019-01-02T15:26:50.388Z,100662.69
2019-01-02T15:29:17.146Z,100662.69
2019-01-02T15:31:44.024Z,100665.66
2019-01-02T15:34:13.936Z,100663.20
2019-01-02T15:36:40.705Z,100670.75
2019-01-02T15:39:09.467Z,100659.02
2019-01-02T15:41:36.949Z,100666.80
2019-01-02T15:44:03.691Z,100666.80
2019-01-02T15:46:30.612Z,100665.09
2019-01-02T15:48:57.509Z,100672.20
2019-01-02T15:51:24.376Z,100665.11
2019-01-02T15:53:51.143Z,100677.69
2019-01-02T15:56:18.013Z,100677.69
2019-01-02T15:58:44.941Z,100689.69
2019-01-02T16:01:31.403Z,100691.52
2019-01-02T16:03:58.122Z,100693.63
2019-01-02T16:06:27.463Z,100697.58
2019-01-02T16:08:54.423Z,100697.24
2019-01-02T16:11:21.161Z,100697.24
2019-01-02T16:13:48.060Z,100705.87
2019-01-02T16:16:14.895Z,100715.31
2019-01-02T16:18:43.140Z,100714.43
2019-01-02T16:21:10.047Z,100714.30
2019-01-02T16:23:36.860Z,100724.73
2019-01-02T16:26:03.611Z,100724.73
2019-01-02T16:28:30.429Z,100721.17
2019-01-02T16:30:59.509Z,100721.25
2019-01-02T16:33:26.240Z,100719.61
2019-01-02T16:35:55.057Z,100727.09
2019-01-02T16:38:21.806Z,100739.57
2019-01-02T16:40:48.943Z,100741.26
2019-01-02T16:43:16.109Z,100751.50
2019-01-02T16:45:45.003Z,100751.50
2019-01-02T16:48:11.846Z,100747.23
2019-01-02T16:50:38.594Z,100759.98
2019-01-02T16:53:06.177Z,100754.88
2019-01-02T16:55:32.913Z,100754.88
2019-01-02T16:57:59.634Z,100760.84
2019-01-02T17:00:26.477Z,100771.23
2019-01-02T17:02:53.593Z,100771.23
2019-01-02T17:05:20.627Z,100756.76
2019-01-02T17:07:47.395Z,100760.62
2019-01-02T17:10:14.300Z,100767.30
2019-01-02T17:12:41.060Z,100760.95
2019-01-02T17:15:07.813Z,100772.25
2019-01-02T17:17:34.565Z,100767.03
2019-01-02T17:20:02.011Z,100767.03
2019-01-02T17:22:28.742Z,100779.47
2019-01-02T17:24:55.481Z,100774.41
2019-01-02T17:27:22.585Z,100774.41
2019-01-02T17:29:49.777Z,100788.31
2019-01-02T17:32:17.629Z,100786.10
2019-01-02T17:34:44.355Z,100784.25
2019-01-02T17:37:11.213Z,100786.69
2019-01-02T17:39:38.060Z,100786.69
2019-01-02T17:42:04.801Z,100780.41
2019-01-02T17:44:32.110Z,100791.57
2019-01-02T17:46:58.844Z,100784.09
2019-01-02T17:49:25.725Z,100784.09
2019-01-02T17:51:52.440Z,100792.73
2019-01-02T17:54:19.477Z,100794.05
2019-01-02T17:56:46.311Z,100794.05
2019-01-02T17:59:13.062Z,100798.16
2019-01-02T18:01:39.810Z,100801.36
2019-01-02T18:04:06.524Z,100801.36
2019-01-02T18:06:33.260Z,100802.67
2019-01-02T18:09:00.001Z,100805.08
2019-01-02T18:11:27.301Z,100805.08
2019-01-02T18:13:54.226Z,100806.64
2019-01-02T18:16:21.132Z,100806.64
2019-01-02T18:18:48.111Z,100805.02
2019-01-02T18:21:15.211Z,100805.02
2019-01-02T18:23:42.591Z,100806.17
2019-01-02T18:26:09.464Z,100805.31
2019-01-02T18:28:36.577Z,100805.31
2019-01-02T18:31:03.338Z,100818.20
2019-01-02T18:33:30.145Z,100814.95
2019-01-02T18:36:00.929Z,100819.25
2019-01-02T18:38:28.002Z,100819.25
2019-01-02T18:40:55.031Z,100818.80
2019-01-02T18:43:21.762Z,100818.80
2019-01-02T18:45:48.461Z,100825.81
2019-01-02T18:48:17.417Z,100819.98
2019-01-02T18:50:44.144Z,100823.27
2019-01-02T18:53:10.940Z,100826.73
2019-01-02T18:55:37.670Z,100825.12
2019-01-02T18:58:04.433Z,100826.17
2019-01-02T19:00:31.339Z,100820.77
2019-01-02T19:02:58.252Z,100829.34
2019-01-02T19:05:25.124Z,100827.25
2019-01-02T19:07:51.933Z,100827.25
2019-01-02T19:10:18.811Z,100839.55
2019-01-02T19:12:45.551Z,100838.58
2019-01-02T19:15:12.304Z,100843.84
2019-01-02T19:17:39.037Z,100858.06
2019-01-02T19:20:05.846Z,100860.11
2019-01-02T19:22:32.700Z,100860.11
2019-01-02T19:24:59.518Z,100865.36
2019-01-02T19:27:26.267Z,100906.45
2019-01-02T19:29:54.246Z,100867.25
2019-01-02T19:32:20.966Z,100869.35
2019-01-02T19:34:48.039Z,100866.77
2019-01-02T19:37:15.151Z,100868.26
2019-01-02T19:39:42.234Z,100868.26
2019-01-02T19:42:09.004Z,100875.31
2019-01-02T19:44:35.823Z,100881.34
2019-01-02T19:47:02.886Z,100873.38
2019-01-02T19:49:29.828Z,100888.25
2019-01-02T19:51:59.243Z,100888.25
2019-01-02T19:54:26.042Z,100900.91
2019-01-02T19:56:52.921Z,100894.73
2019-01-02T19:59:19.983Z,100894.73
2019-01-02T20:01:46.867Z,100902.06
2019-01-02T20:04:13.737Z,100905.16
2019-01-02T20:06:40.579Z,100894.73
2019-01-02T20:09:08.904Z,100899.95
2019-01-02T20:11:35.628Z,100889.19
2019-01-02T20:14:02.368Z,100894.87
2019-01-02T20:16:29.077Z,100891.47
2019-01-02T20:18:55.817Z,100893.74
2019-01-02T20:21:22.659Z,100889.02
2019-01-02T20:23:49.526Z,100896.97
2019-01-02T20:26:18.731Z,100896.52
2019-01-02T20:28:45.451Z,100901.41
2019-01-02T20:31:12.196Z,100905.50
2019-01-02T20:33:38.923Z,100900.27
2019-01-02T20:36:05.978Z,100906.30
2019-01-02T20:38:32.763Z,100901.91
2019-01-02T20:40:59.587Z,100907.27
2019-01-02T20:43:26.515Z,100909.39
2019-01-02T20:45:53.342Z,100897.66
2019-01-02T20:48:20.084Z,100899.61
2019-01-02T20:50:46.840Z,100904.17
2019-01-02T20:53:13.712Z,100906.13
2019-01-02T20:55:41.943Z,100906.13
2019-01-02T20:58:10.996Z,100907.78
2019-01-02T21:00:37.720Z,100890.00
2019-01-02T21:03:04.497Z,100890.80
2019-01-02T21:05:31.561Z,100890.31
2019-01-02T21:07:58.435Z,100888.97
2019-01-02T21:10:25.208Z,100889.14
2019-01-02T21:12:51.967Z,100887.67
2019-01-02T21:15:18.708Z,100889.31
2019-01-02T21:17:45.536Z,100892.23
2019-01-02T21:20:12.399Z,100892.75
2019-01-02T21:22:39.149Z,100889.80
2019-01-02T21:25:06.724Z,100887.31
2019-01-02T21:27:33.464Z,100892.39
2019-01-02T21:30:00.263Z,100893.53
2019-01-02T21:32:26.944Z,100896.45
2019-01-02T21:34:53.638Z,100899.88
2019-01-02T21:37:23.177Z,100903.12
2019-01-02T21:39:50.301Z,100898.08
2019-01-02T21:42:17.202Z,100896.72
2019-01-02T21:44:43.949Z,100896.39
2019-01-02T21:47:11.189Z,100897.18
2019-01-02T21:49:37.903Z,100896.41
2019-01-02T21:52:04.681Z,100902.41
2019-01-02T21:54:31.578Z,100894.10
2019-01-02T21:56:58.354Z,100886.77
2019-01-02T21:59:25.214Z,100890.50
2019-01-02T22:01:51.956Z,100889.66
2019-01-02T22:04:18.720Z,100894.37
2019-01-02T22:06:45.735Z,100888.98
2019-01-02T22:09:12.561Z,100908.34
2019-01-02T22:11:39.274Z,100894.19
2019-01-02T22:14:06.033Z,100901.37
2019-01-02T22:16:35.613Z,100903.47
2019-01-02T22:19:02.518Z,100904.30
2019-01-02T22:21:29.323Z,100913.08
2019-01-02T22:23:56.052Z,100908.98
2019-01-02T22:26:22.900Z,100909.14
2019-01-02T22:28:49.682Z,100912.21
2019-01-02T22:31:16.742Z,100916.56
2019-01-02T22:33:43.512Z,100917.06
2019-01-02T22:36:10.360Z,100915.63
2019-01-02T22:38:37.161Z,100917.25
2019-01-02T22:41:04.107Z,100913.98
2019-01-02T22:43:30.871Z,100918.13
2019-01-02T22:45:57.945Z,100921.75
2019-01-02T22:48:24.980Z,100916.40
2019-01-02T22:50:51.665Z,100927.95
2019-01-02T22:53:18.375Z,100926.72
2019-01-02T22:55:47.291Z,100927.69
2019-01-02T22:58:13.985Z,100936.16
2019-01-02T23:00:59.287Z,100932.95
2019-01-02T23:03:48.964Z,100931.46
2019-01-02T23:06:35.335Z,100942.83
2019-01-02T23:09:33.530Z,100935.61
2019-01-02T23:12:18.243Z,100946.95
2019-01-02T23:15:03.072Z,100951.93
2019-01-02T23:17:46.852Z,100953.62
2019-01-02T23:20:32.077Z,100954.28
2019-01-02T23:23:36.551Z,100958.98
2019-01-02T23:26:21.446Z,100957.55
2019-01-02T23:29:16.008Z,100961.31
2019-01-02T23:32:00.801Z,100966.41
2019-01-02T23:34:46.160Z,100970.35
2019-01-02T23:37:37.557Z,100967.71
2019-01-02T23:40:23.031Z,100972.30
2019-01-02T23:43:27.958Z,100995.52
2019-01-02T23:46:20.213Z,100982.53
2019-01-02T23:49:05.191Z,100985.95
2019-01-02T23:52:06.413Z,100987.03
2019-01-02T23:54:51.070Z,100994.73
2019-01-02T23:57:41.347Z,100992.57
